createdAt,value
2023-02-19T00:01:36.389Z,59
2023-02-19T00:06:38.293Z,59
2023-02-19T00:11:39.928Z,59
2023-02-19T00:16:41.964Z,60
2023-02-19T00:21:43.690Z,60
2023-02-19T00:26:45.004Z,60
2023-02-19T00:31:46.489Z,60
2023-02-19T00:36:48.262Z,61
2023-02-19T00:41:49.782Z,61
2023-02-19T00:46:51.455Z,61
2023-02-19T00:51:52.757Z,61
2023-02-19T00:56:53.865Z,62
2023-02-19T01:01:55.243Z,61
2023-02-19T01:06:57.109Z,61
2023-02-19T01:11:58.695Z,62
2023-02-19T01:17:00.705Z,62
2023-02-19T01:22:02.727Z,62
2023-02-19T01:27:04.868Z,62
2023-02-19T01:32:07.072Z,62
2023-02-19T01:37:08.265Z,62
2023-02-19T01:42:09.712Z,62
2023-02-19T01:47:11.103Z,62
2023-02-19T01:52:12.685Z,63
2023-02-19T01:57:14.011Z,62
2023-02-19T02:02:15.460Z,62
2023-02-19T02:07:16.870Z,62
2023-02-19T02:12:18.310Z,62
2023-02-19T02:17:20.320Z,62
2023-02-19T02:22:21.576Z,62
2023-02-19T02:27:23.680Z,62
2023-02-19T02:32:25.656Z,62
2023-02-19T02:37:27.827Z,62
2023-02-19T02:42:29.734Z,63
2023-02-19T02:47:31.135Z,64
2023-02-19T02:52:33.233Z,64
2023-02-19T02:52:39.551Z,64
2023-02-19T02:57:41.164Z,64
2023-02-19T03:02:43.236Z,64
2023-02-19T03:07:45.242Z,65
2023-02-19T03:12:46.669Z,65
2023-02-19T03:17:47.955Z,67
2023-02-19T03:22:50.064Z,67
2023-02-19T03:27:51.754Z,68
2023-02-19T03:32:53.290Z,69
2023-02-19T03:37:54.677Z,70
2023-02-19T03:42:56.275Z,70
2023-02-19T03:47:58.283Z,70
2023-02-19T03:53:00.038Z,71
2023-02-19T03:58:01.881Z,72
2023-02-19T04:03:03.861Z,72
2023-02-19T04:08:05.209Z,72
2023-02-19T04:13:07.328Z,73
2023-02-19T04:18:09.465Z,73
2023-02-19T04:23:10.805Z,73
2023-02-19T04:28:12.337Z,73
2023-02-19T04:33:14.349Z,75
2023-02-19T04:38:15.678Z,75
2023-02-19T04:43:16.943Z,74
2023-02-19T04:48:19.101Z,75
2023-02-19T04:53:20.422Z,75
2023-02-19T04:58:22.178Z,75
2023-02-19T05:03:23.511Z,75
2023-02-19T05:08:24.949Z,76
2023-02-19T05:13:26.748Z,76
2023-02-19T05:18:28.218Z,76
2023-02-19T05:23:29.492Z,76
2023-02-19T05:28:31.154Z,76
2023-02-19T05:33:32.962Z,76
2023-02-19T05:38:34.336Z,76
2023-02-19T05:43:36.207Z,76
2023-02-19T05:48:38.180Z,76
2023-02-19T05:53:39.898Z,76
2023-02-19T05:58:42.033Z,76
2023-02-19T06:03:43.200Z,77
2023-02-19T06:08:44.861Z,76
2023-02-19T06:13:46.137Z,76
2023-02-19T06:18:47.958Z,75
2023-02-19T06:23:49.906Z,75
2023-02-19T06:28:51.682Z,75
2023-02-19T06:33:53.501Z,75
2023-02-19T06:38:55.031Z,75
2023-02-19T06:43:56.802Z,75
2023-02-19T06:48:58.029Z,75
2023-02-19T06:53:59.565Z,74
2023-02-19T06:59:01.236Z,74
2023-02-19T07:04:02.946Z,74
2023-02-19T07:09:05.006Z,74
2023-02-19T07:14:07.136Z,75
2023-02-19T07:19:08.903Z,76
2023-02-19T07:24:10.958Z,77
2023-02-19T07:29:13.079Z,77
2023-02-19T07:34:14.295Z,78
2023-02-19T07:39:16.302Z,79
2023-02-19T07:44:18.321Z,79
2023-02-19T07:49:20.275Z,79
2023-02-19T07:54:21.512Z,80
2023-02-19T07:59:23.031Z,80
2023-02-19T08:04:24.768Z,79
2023-02-19T08:09:26.804Z,78
2023-02-19T08:14:28.271Z,78
2023-02-19T08:19:30.308Z,77
2023-02-19T08:24:31.617Z,75
2023-02-19T08:29:33.334Z,75
2023-02-19T08:34:35.464Z,72
2023-02-19T08:39:37.039Z,70
2023-02-19T08:44:38.510Z,67
2023-02-19T08:49:40.485Z,65
2023-02-19T08:54:42.284Z,64
2023-02-19T08:59:44.041Z,62
2023-02-19T09:04:45.732Z,62
2023-02-19T09:09:47.735Z,62
2023-02-19T09:14:49.148Z,63
2023-02-19T09:19:50.920Z,65
2023-02-19T09:24:52.059Z,64
2023-02-19T09:29:54.077Z,64
2023-02-19T09:34:55.532Z,62
2023-02-19T09:44:59.156Z,54
2023-02-19T09:55:02.901Z,53
2023-02-19T10:05:06.753Z,54
2023-02-19T10:15:09.845Z,54
2023-02-19T10:20:11.651Z,50
2023-02-19T10:25:13.760Z,46
2023-02-19T10:30:15.063Z,42
2023-02-19T10:35:16.846Z,38
2023-02-19T10:40:18.494Z,39
2023-02-19T10:45:20.507Z,40
2023-02-19T10:50:21.893Z,42
2023-02-19T10:55:23.723Z,43
2023-02-19T11:05:27.342Z,43
2023-02-19T11:10:29.010Z,40
2023-02-19T11:15:31.043Z,38
2023-02-19T11:20:32.820Z,38
2023-02-19T11:25:34.423Z,40
2023-02-19T11:30:36.427Z,39
2023-02-19T11:35:36.938Z,40
2023-02-19T11:40:38.357Z,40
2023-02-19T11:45:40.232Z,43
2023-02-19T11:50:41.639Z,46
2023-02-19T11:55:43.560Z,48
2023-02-19T12:00:45.462Z,49
2023-02-19T12:05:46.927Z,48
2023-02-19T12:10:48.477Z,48
2023-02-19T12:15:50.479Z,48
2023-02-19T12:20:52.608Z,48
2023-02-19T12:25:54.428Z,48
2023-02-19T12:30:56.524Z,48
2023-02-19T12:35:58.645Z,50
2023-02-19T12:41:00.500Z,50
2023-02-19T12:46:02.042Z,49
2023-02-19T12:51:03.174Z,50
2023-02-19T12:56:04.391Z,49
2023-02-19T13:01:05.806Z,49
2023-02-19T13:06:09.747Z,48
2023-02-19T13:11:09.202Z,49
2023-02-19T13:16:11.120Z,50
2023-02-19T13:21:12.483Z,50
2023-02-19T13:26:14.039Z,49
2023-02-19T13:31:16.230Z,49
2023-02-19T13:36:17.361Z,50
2023-02-19T13:41:19.363Z,51
2023-02-19T13:46:20.838Z,50
2023-02-19T13:51:22.638Z,51
2023-02-19T13:56:24.471Z,51
2023-02-19T14:01:26.056Z,51
2023-02-19T14:06:28.800Z,50
2023-02-19T14:11:29.352Z,51
2023-02-19T14:16:30.995Z,51
2023-02-19T14:21:32.546Z,51
2023-02-19T14:26:33.759Z,50
2023-02-19T14:31:35.590Z,51
2023-02-19T14:36:37.192Z,51
2023-02-19T14:41:39.040Z,51
2023-02-19T14:46:40.638Z,51
2023-02-19T14:51:42.488Z,51
2023-02-19T14:56:44.523Z,51
2023-02-19T15:01:46.422Z,52
2023-02-19T15:06:48.400Z,52
2023-02-19T15:11:49.713Z,52
2023-02-19T15:16:51.817Z,53
2023-02-19T15:21:53.231Z,54
2023-02-19T15:26:54.606Z,55
2023-02-19T15:31:56.370Z,54
2023-02-19T15:36:58.012Z,53
2023-02-19T15:42:00.344Z,50
2023-02-19T15:47:01.592Z,48
2023-02-19T15:52:03.289Z,48
2023-02-19T15:57:05.373Z,48
2023-02-19T16:02:07.534Z,48
2023-02-19T16:07:08.952Z,48
2023-02-19T16:12:10.850Z,48
2023-02-19T16:17:12.261Z,49
2023-02-19T16:22:13.919Z,49
2023-02-19T16:27:15.533Z,50
2023-02-19T16:32:17.714Z,50
2023-02-19T16:37:19.533Z,50
2023-02-19T16:42:21.688Z,51
2023-02-19T16:47:23.659Z,51
2023-02-19T16:52:25.316Z,52
2023-02-19T16:57:26.379Z,53
2023-02-19T17:02:28.062Z,53
2023-02-19T17:07:29.807Z,54
2023-02-19T17:12:31.741Z,54
2023-02-19T17:17:33.673Z,55
2023-02-19T17:22:34.993Z,55
2023-02-19T17:27:36.824Z,55
2023-02-19T17:32:38.085Z,56
2023-02-19T17:37:39.299Z,56
2023-02-19T17:42:41.326Z,56
2023-02-19T17:47:42.568Z,57
2023-02-19T17:52:44.051Z,57
2023-02-19T17:57:46.131Z,57
2023-02-19T18:02:47.666Z,58
2023-02-19T18:07:49.073Z,58
2023-02-19T18:12:50.431Z,58
2023-02-19T18:17:52.410Z,59
2023-02-19T18:22:54.071Z,59
2023-02-19T18:27:55.411Z,59
2023-02-19T18:32:56.734Z,59
2023-02-19T18:37:58.182Z,59
2023-02-19T18:42:59.935Z,60
2023-02-19T18:48:01.556Z,60
2023-02-19T18:53:03.345Z,60
2023-02-19T18:58:05.457Z,61
2023-02-19T19:03:06.874Z,61
2023-02-19T19:08:08.034Z,61
2023-02-19T19:13:10.042Z,61
2023-02-19T19:18:11.568Z,60
2023-02-19T19:23:13.092Z,60
2023-02-19T19:28:15.122Z,60
2023-02-19T19:33:17.627Z,60
2023-02-19T19:38:19.050Z,60
2023-02-19T19:43:26.853Z,60
2023-02-19T19:48:29.088Z,60
2023-02-19T19:53:31.066Z,59
2023-02-19T19:58:32.822Z,59
2023-02-19T20:03:34.426Z,60
2023-02-19T20:08:36.076Z,59
2023-02-19T20:13:38.270Z,60
2023-02-19T20:18:39.699Z,59
2023-02-19T20:23:41.020Z,59
2023-02-19T20:28:42.918Z,60
2023-02-19T20:33:44.234Z,60
2023-02-19T20:38:45.528Z,60
2023-02-19T20:43:47.643Z,60
2023-02-19T20:48:50.891Z,60
2023-02-19T20:53:50.342Z,60
2023-02-19T20:58:51.586Z,61
2023-02-19T21:03:53.549Z,61
2023-02-19T21:08:54.696Z,61
2023-02-19T21:13:56.165Z,61
2023-02-19T21:18:58.304Z,61
2023-02-19T21:24:00.040Z,62
2023-02-19T21:29:01.563Z,61
2023-02-19T21:34:03.447Z,61
2023-02-19T21:39:05.514Z,62
2023-02-19T21:44:06.728Z,62
2023-02-19T21:49:08.392Z,62
2023-02-19T21:54:09.718Z,61
2023-02-19T21:59:11.684Z,62
2023-02-19T22:04:12.963Z,62
2023-02-19T22:09:14.656Z,61
2023-02-19T22:14:16.604Z,62
2023-02-19T22:19:18.759Z,62
2023-02-19T22:24:20.593Z,62
2023-02-19T22:29:22.171Z,62
2023-02-19T22:34:23.983Z,62
2023-02-19T22:39:25.414Z,62
2023-02-19T22:44:26.633Z,62
2023-02-19T22:49:28.718Z,62
2023-02-19T22:54:30.667Z,62
2023-02-19T22:59:31.896Z,62
2023-02-19T23:14:37.417Z,61
2023-02-19T23:19:38.948Z,61
2023-02-19T23:24:40.244Z,61
2023-02-19T23:29:41.965Z,61
2023-02-19T23:34:43.358Z,61
2023-02-19T23:39:45.097Z,61
2023-02-19T23:44:46.985Z,61
2023-02-19T23:49:48.403Z,61
2023-02-19T23:54:50.069Z,61
2023-02-19T23:59:52.285Z,61
